Time;durP1;ratioP1;P1;durP2;ratioP2;P2;SDS_P1;SDS_P2;PMS_P1;PMS_P2;Temp;Humidity;BMP_temperature;BMP_pressure;BME280_temperature;BME280_humidity;BME280_pressure;Samples;Min_cycle;Max_cycle;Signal;HPM_P1;HPM_P2
2023/09/03 00:00:54;;;;;;;7.50;5.80;;;;;;;18.38;75.41;99561.05;221756;182;139445;-66
2023/09/03 00:06:20;;;;;;;9.20;6.50;;;;;;;18.33;75.30;99570.48;221814;182;138207;-71
2023/09/03 00:11:24;;;;;;;12.00;6.00;;;;;;;18.34;75.69;99567.90;221743;182;147075;-67
2023/09/03 00:16:27;;;;;;;12.40;6.90;;;;;;;18.30;75.62;99565.38;221733;183;139005;-66
2023/09/03 00:21:32;;;;;;;8.30;5.80;;;;;;;18.24;75.31;99557.13;221746;182;137532;-67
2023/09/03 00:26:37;;;;;;;8.60;5.40;;;;;;;18.21;75.21;99550.89;221820;182;147121;-60
2023/09/03 00:31:42;;;;;;;7.90;6.30;;;;;;;18.16;75.49;99554.48;221819;183;139416;-64
2023/09/03 00:36:48;;;;;;;;;;;;;;;18.21;75.60;99552.14;221851;182;137686;-63
2023/09/03 00:41:54;;;;;;;9.50;6.30;;;;;;;18.18;75.36;99548.45;221979;178;146086;-63
2023/09/03 00:46:58;;;;;;;10.30;6.40;;;;;;;18.08;75.55;99551.23;221715;182;139432;-63
2023/09/03 00:52:04;;;;;;;8.00;5.80;;;;;;;17.98;75.86;99549.25;221783;182;138466;-63
2023/09/03 00:57:08;;;;;;;8.80;6.00;;;;;;;17.94;76.07;99553.82;221736;182;145508;-63
2023/09/03 01:02:19;;;;;;;8.40;6.10;;;;;;;17.93;76.30;99554.11;221721;182;139052;-60
2023/09/03 01:07:23;;;;;;;9.60;6.10;;;;;;;17.93;76.39;99551.78;221807;182;137901;-61
2023/09/03 01:12:37;;;;;;;11.10;6.90;;;;;;;17.92;76.37;99545.09;221993;182;145476;-60
2023/09/03 01:17:52;;;;;;;10.30;6.70;;;;;;;17.87;76.65;99543.02;221690;183;139267;-60
2023/09/03 01:23:27;;;;;;;9.30;6.10;;;;;;;17.81;76.94;99537.55;221819;183;137633;-63
2023/09/03 01:28:42;;;;;;;7.90;5.80;;;;;;;17.76;76.84;99533.35;221902;182;145492;-63
2023/09/03 01:33:48;;;;;;;9.80;6.70;;;;;;;17.79;76.86;99542.42;221737;182;138928;-65
2023/09/03 01:38:53;;;;;;;10.00;6.90;;;;;;;17.72;76.55;99540.73;221869;179;139930;-65
2023/09/03 01:43:59;;;;;;;9.80;6.50;;;;;;;17.69;76.53;99539.26;221734;182;145835;-68
2023/09/03 01:49:25;;;;;;;;;;;;;;;17.66;76.40;99550.41;221876;182;140598;-61
2023/09/03 01:54:32;;;;;;;9.70;6.10;;;;;;;17.55;76.34;99554.23;221811;182;131198;-60
2023/09/03 01:59:41;;;;;;;11.70;6.00;;;;;;;17.44;76.59;99556.73;221828;182;146178;-62
2023/09/03 02:04:47;;;;;;;12.70;5.50;;;;;;;17.38;76.64;99558.85;221681;182;139223;-61
2023/09/03 02:09:51;;;;;;;12.10;6.00;;;;;;;17.36;76.81;99549.48;221714;182;137697;-59
2023/09/03 02:14:56;;;;;;;12.90;6.60;;;;;;;17.35;76.76;99546.07;221730;182;145973;-61
2023/09/03 02:20:06;;;;;;;9.40;6.10;;;;;;;17.33;76.86;99542.24;221716;182;139146;-60
2023/09/03 02:25:10;;;;;;;11.80;6.20;;;;;;;17.30;76.91;99531.03;221874;182;137897;-61
2023/09/03 02:30:16;;;;;;;10.20;5.90;;;;;;;17.23;76.64;99527.82;221703;181;145517;-61
2023/09/03 02:35:20;;;;;;;13.50;5.60;;;;;;;17.15;76.56;99524.55;221784;182;140080;-60
2023/09/03 02:40:25;;;;;;;9.70;5.60;;;;;;;17.08;76.69;99518.31;221766;182;138603;-60
2023/09/03 02:45:31;;;;;;;13.80;5.50;;;;;;;17.04;76.72;99513.20;221761;181;145975;-62
2023/09/03 02:50:37;;;;;;;11.70;6.20;;;;;;;16.99;76.70;99502.65;221719;181;139033;-60
2023/09/03 02:55:42;;;;;;;10.20;6.30;;;;;;;16.96;76.98;99500.10;221631;182;137456;-62
2023/09/03 03:00:47;;;;;;;10.90;6.60;;;;;;;16.95;77.07;99493.91;221776;182;146155;-63
2023/09/03 03:05:54;;;;;;;10.30;5.40;;;;;;;16.91;77.25;99500.15;221731;182;139639;-59
2023/09/03 03:11:08;;;;;;;12.10;6.10;;;;;;;16.89;77.60;99506.20;221740;182;137926;-63
2023/09/03 03:16:14;;;;;;;9.60;5.60;;;;;;;16.94;77.98;99509.70;221765;183;145496;-63
2023/09/03 03:21:22;;;;;;;13.80;6.50;;;;;;;17.03;77.78;99522.45;221741;182;138552;-61
2023/09/03 03:26:32;;;;;;;8.00;5.70;;;;;;;17.00;77.93;99531.61;221883;182;137795;-62
2023/09/03 03:31:45;;;;;;;10.30;5.90;;;;;;;17.02;78.28;99537.20;221729;182;146304;-61
2023/09/03 03:36:50;;;;;;;8.10;4.90;;;;;;;17.07;78.20;99532.38;221814;183;138936;-61
2023/09/03 03:41:56;;;;;;;6.90;4.60;;;;;;;17.13;78.26;99534.15;221914;182;138962;-60
2023/09/03 03:47:03;;;;;;;6.20;4.50;;;;;;;17.18;77.94;99530.37;221807;182;145822;-60
2023/09/03 03:52:07;;;;;;;6.00;4.70;;;;;;;17.16;77.64;99527.27;221774;182;141594;-58
2023/09/03 03:57:11;;;;;;;8.00;4.70;;;;;;;17.19;77.73;99525.94;221818;182;137375;-60
2023/09/03 04:02:16;;;;;;;9.20;4.70;;;;;;;17.22;78.00;99523.73;221760;182;147883;-60
2023/09/03 04:07:23;;;;;;;7.70;4.60;;;;;;;17.22;78.10;99520.70;221763;182;140426;-58
2023/09/03 04:12:29;;;;;;;9.20;4.40;;;;;;;17.23;78.11;99524.62;221814;181;139263;-59
2023/09/03 04:17:35;;;;;;;7.60;4.40;;;;;;;17.29;78.32;99520.49;221675;182;260086;-58
2023/09/03 04:22:41;;;;;;;8.70;5.00;;;;;;;17.37;78.35;99511.82;221673;182;138844;-59
2023/09/03 04:27:46;;;;;;;9.00;4.90;;;;;;;17.40;78.26;99513.16;221783;182;137400;-57
2023/09/03 04:32:50;;;;;;;7.60;5.40;;;;;;;17.38;78.26;99510.39;221741;182;147716;-58
2023/09/03 04:37:57;;;;;;;10.40;5.40;;;;;;;17.36;78.19;99516.55;221781;182;139211;-60
2023/09/03 04:43:06;;;;;;;8.60;5.10;;;;;;;17.40;78.48;99518.55;221899;182;138368;-57
2023/09/03 04:48:11;;;;;;;9.60;5.70;;;;;;;17.50;78.58;99521.77;221756;182;147756;-55
2023/09/03 04:53:17;;;;;;;8.20;6.00;;;;;;;17.62;78.34;99527.63;221768;183;139968;-56
2023/09/03 04:58:23;;;;;;;5.90;5.10;;;;;;;17.69;77.82;99542.86;221795;182;137492;-57
2023/09/03 05:03:28;;;;;;;8.60;5.00;;;;;;;17.67;77.38;99559.66;221732;182;147704;-57
2023/09/03 05:08:34;;;;;;;8.00;4.10;;;;;;;17.61;77.99;99572.38;221761;181;140420;-57
2023/09/03 05:13:40;;;;;;;9.90;4.20;;;;;;;17.54;78.76;99587.48;221713;182;138033;-58
2023/09/03 05:18:44;;;;;;;5.50;4.60;;;;;;;17.55;79.53;99594.45;221622;182;149080;-57
2023/09/03 05:23:50;;;;;;;7.70;4.50;;;;;;;17.61;79.85;99567.04;221697;183;138811;-60
2023/09/03 05:28:54;;;;;;;5.90;4.50;;;;;;;17.65;80.40;99554.70;221794;182;137945;-59
2023/09/03 05:34:02;;;;;;;8.80;4.60;;;;;;;17.73;80.15;99553.23;221787;182;147538;-59
2023/09/03 05:39:08;;;;;;;7.30;4.50;;;;;;;17.75;80.39;99545.40;221525;182;139069;-59
2023/09/03 05:44:15;;;;;;;;;;;;;;;17.81;80.57;99551.24;221684;182;138294;-58
2023/09/03 05:49:20;;;;;;;9.00;4.80;;;;;;;17.97;80.35;99563.48;221817;182;148568;-60
2023/09/03 05:54:26;;;;;;;7.50;5.00;;;;;;;18.12;79.65;99569.58;221732;183;139214;-58
2023/09/03 05:59:30;;;;;;;7.40;5.20;;;;;;;18.16;79.32;99567.59;221689;182;137506;-58
2023/09/03 06:04:35;;;;;;;6.80;4.50;;;;;;;18.15;79.40;99570.00;221734;182;147686;-58
2023/09/03 06:09:40;;;;;;;9.10;5.20;;;;;;;18.21;79.87;99578.19;221685;182;138769;-58
2023/09/03 06:14:45;;;;;;;9.90;5.20;;;;;;;18.32;80.25;99572.79;221884;182;138194;-58
2023/09/03 06:19:51;;;;;;;7.20;5.20;;;;;;;18.40;80.54;99570.61;221755;181;147336;-59
2023/09/03 06:24:55;;;;;;;6.20;4.90;;;;;;;18.41;80.36;99575.36;221619;182;138918;-61
2023/09/03 06:30:01;;;;;;;7.30;4.40;;;;;;;18.40;79.50;99575.65;221695;182;137718;-60
2023/09/03 06:35:05;;;;;;;6.80;4.30;;;;;;;18.42;78.97;99571.30;221663;182;147229;-58
2023/09/03 06:40:14;;;;;;;99.30;84.00;;;;;;;18.48;79.08;99582.88;221682;182;140436;-59
2023/09/03 06:45:20;;;;;;;8.70;7.10;;;;;;;18.47;78.64;99581.55;221833;181;138550;-60
2023/09/03 06:50:27;;;;;;;148.20;98.30;;;;;;;18.47;79.27;99586.02;221667;182;147611;-59
2023/09/03 06:55:31;;;;;;;8.40;5.70;;;;;;;18.58;79.56;99593.89;221688;182;140769;-59
2023/09/03 07:00:37;;;;;;;5.40;4.50;;;;;;;18.56;79.58;99592.42;221735;182;138097;-59
2023/09/03 07:05:42;;;;;;;5.90;4.80;;;;;;;18.53;79.75;99597.91;221685;182;148918;-59
2023/09/03 07:10:46;;;;;;;58.70;52.30;;;;;;;18.51;79.77;99598.08;221750;182;138566;-59
2023/09/03 07:15:51;;;;;;;9.10;7.40;;;;;;;18.53;79.10;99594.49;221748;182;139070;-59
2023/09/03 07:21:08;;;;;;;;;;;;;;;18.70;80.11;99594.30;221694;182;147179;-59
2023/09/03 07:26:14;;;;;;;13.60;11.30;;;;;;;18.77;79.44;99596.02;221888;182;138992;-61
2023/09/03 07:31:19;;;;;;;35.60;27.20;;;;;;;18.76;77.73;99598.23;221755;182;140962;-58
2023/09/03 07:36:24;;;;;;;8.60;6.10;;;;;;;18.81;78.10;99596.95;221851;182;148198;-59
2023/09/03 07:41:30;;;;;;;6.80;5.10;;;;;;;18.83;77.72;99597.13;221737;182;138723;-58
2023/09/03 07:46:36;;;;;;;6.40;5.20;;;;;;;18.76;77.93;99614.80;221767;179;138682;-58
2023/09/03 07:51:42;;;;;;;204.70;146.00;;;;;;;18.67;77.81;99623.77;221653;182;147756;-56
2023/09/03 07:56:46;;;;;;;10.90;7.30;;;;;;;18.67;78.64;99635.64;221663;182;139338;-58
2023/09/03 08:01:52;;;;;;;7.10;5.80;;;;;;;18.61;79.07;99637.59;221843;178;138631;-59
2023/09/03 08:06:59;;;;;;;8.10;6.30;;;;;;;18.62;79.73;99641.28;221717;182;148458;-59
2023/09/03 08:12:06;;;;;;;9.10;6.70;;;;;;;18.62;79.50;99634.99;221680;182;138654;-64
2023/09/03 08:17:09;;;;;;;8.40;6.40;;;;;;;18.62;79.50;99638.62;221751;182;137858;-61
2023/09/03 08:22:13;;;;;;;7.00;5.90;;;;;;;18.68;80.32;99654.44;221680;182;147862;-63
2023/09/03 08:27:17;;;;;;;6.70;5.70;;;;;;;18.74;80.61;99656.15;221693;182;140783;-62
2023/09/03 08:32:22;;;;;;;7.60;5.90;;;;;;;18.78;80.27;99663.02;221720;182;141548;-62
2023/09/03 08:37:28;;;;;;;145.10;121.10;;;;;;;18.81;80.27;99661.48;221802;182;148776;-62
2023/09/03 08:42:40;;;;;;;12.80;8.60;;;;;;;18.96;80.32;99663.98;221823;182;138758;-63
2023/09/03 08:47:45;;;;;;;10.80;8.30;;;;;;;19.18;80.07;99665.23;221819;182;138431;-60
2023/09/03 08:52:52;;;;;;;18.50;13.00;;;;;;;19.37;79.82;99669.13;221698;182;149216;-59
2023/09/03 08:57:57;;;;;;;10.10;5.90;;;;;;;19.60;79.38;99673.83;221760;182;139491;-59
2023/09/03 09:03:06;;;;;;;7.10;5.20;;;;;;;19.89;78.05;99671.91;221677;182;138217;-63
2023/09/03 09:08:13;;;;;;;8.50;6.40;;;;;;;20.10;76.72;99672.88;221776;182;149791;-60
2023/09/03 09:13:21;;;;;;;7.50;5.20;;;;;;;20.20;76.44;99664.77;221694;183;138973;-59
2023/09/03 09:18:26;;;;;;;7.40;4.10;;;;;;;20.28;76.03;99665.64;221786;182;137813;-61
2023/09/03 09:23:31;;;;;;;4.70;4.20;;;;;;;20.44;75.61;99660.16;221777;182;147722;-59
2023/09/03 09:28:36;;;;;;;7.00;4.50;;;;;;;20.59;75.35;99659.00;221722;182;139923;-61
2023/09/03 09:33:50;;;;;;;8.60;7.60;;;;;;;20.67;75.06;99656.30;221766;181;137654;-63
2023/09/03 09:39:07;;;;;;;7.40;5.30;;;;;;;20.75;74.29;99650.77;221888;181;148594;-61
2023/09/03 09:44:11;;;;;;;4.90;4.10;;;;;;;20.78;74.58;99649.12;222032;182;138907;-62
2023/09/03 09:49:14;;;;;;;6.50;4.10;;;;;;;21.07;74.15;99643.92;221909;182;138120;-61
2023/09/03 09:54:19;;;;;;;6.00;3.90;;;;;;;21.44;73.86;99638.38;221806;182;147670;-62
2023/09/03 09:59:28;;;;;;;8.10;4.50;;;;;;;21.69;73.09;99634.02;221897;181;138608;-65
2023/09/03 10:04:41;;;;;;;152.50;120.70;;;;;;;21.88;72.01;99626.47;221763;181;137798;-65
2023/09/03 10:09:46;;;;;;;7.60;5.90;;;;;;;21.83;70.24;99627.39;221823;181;147944;-62
2023/09/03 10:14:52;;;;;;;5.60;4.50;;;;;;;21.91;70.43;99621.91;221621;182;140831;-62
2023/09/03 10:20:04;;;;;;;6.00;4.80;;;;;;;22.13;69.75;99613.13;221769;181;137573;-62
2023/09/03 10:25:14;;;;;;;9.10;4.60;;;;;;;22.20;69.21;99615.70;221711;182;149466;-64
2023/09/03 10:30:25;;;;;;;9.20;5.10;;;;;;;22.43;69.53;99619.77;221699;179;138665;-62
2023/09/03 10:35:29;;;;;;;33.50;17.30;;;;;;;22.72;68.88;99610.02;221708;181;138772;-64
2023/09/03 10:40:34;;;;;;;68.60;42.70;;;;;;;22.88;65.84;99609.08;221689;182;147672;-64
2023/09/03 10:46:01;;;;;;;47.40;37.10;;;;;;;22.81;63.91;99609.05;221767;182;138854;-65
2023/09/03 10:51:07;;;;;;;73.90;56.10;;;;;;;22.94;63.11;99611.85;221774;182;137497;-64
2023/09/03 10:56:19;;;;;;;50.10;37.30;;;;;;;23.14;61.39;99615.60;221789;182;148951;-64
2023/09/03 11:01:26;;;;;;;31.50;23.90;;;;;;;23.29;59.39;99611.84;221795;182;139423;-65
2023/09/03 11:06:32;;;;;;;22.10;15.10;;;;;;;23.47;59.30;99611.44;221731;182;137005;-63
2023/09/03 11:11:40;;;;;;;32.10;10.10;;;;;;;23.59;57.95;99610.27;221730;182;148248;-61
2023/09/03 11:16:43;;;;;;;27.10;16.50;;;;;;;23.60;56.70;99614.36;221806;182;138835;-61
2023/09/03 11:21:48;;;;;;;7.30;3.60;;;;;;;23.56;55.60;99607.30;221701;182;137902;-63
2023/09/03 11:27:08;;;;;;;11.70;3.90;;;;;;;23.64;55.98;99605.27;221772;182;146607;-59
2023/09/03 11:32:12;;;;;;;3.70;2.50;;;;;;;23.76;54.07;99598.33;221848;183;139603;-63
2023/09/03 11:37:16;;;;;;;4.00;2.50;;;;;;;23.80;53.16;99598.64;221680;183;137609;-66
2023/09/03 11:42:22;;;;;;;272.60;237.10;;;;;;;23.91;52.64;99591.62;221785;182;147408;-64
2023/09/03 11:47:27;;;;;;;16.70;13.00;;;;;;;24.21;53.50;99589.98;221694;182;138678;-62
2023/09/03 11:52:32;;;;;;;;;;;;;;;24.54;52.13;99583.63;221862;183;137399;-61
2023/09/03 11:57:38;;;;;;;15.50;3.30;;;;;;;24.81;51.21;99571.52;221735;182;148709;-63
2023/09/03 12:02:44;;;;;;;7.20;2.90;;;;;;;24.97;50.69;99572.89;221748;182;139942;-63
2023/09/03 12:07:49;;;;;;;7.00;2.70;;;;;;;25.27;49.43;99565.27;221872;182;138211;-62
2023/09/03 12:12:56;;;;;;;4.50;2.70;;;;;;;25.42;50.04;99551.75;221866;182;148460;-65
2023/09/03 12:18:07;;;;;;;11.10;4.30;;;;;;;25.37;51.06;99553.66;221751;182;139368;-63
2023/09/03 12:23:15;;;;;;;8.70;3.50;;;;;;;25.57;51.56;99547.15;221824;182;137866;-61
2023/09/03 12:28:35;;;;;;;5.50;2.70;;;;;;;25.68;51.10;99543.16;221747;181;147812;-64
2023/09/03 12:33:46;;;;;;;18.80;15.20;;;;;;;25.76;49.91;99552.39;221746;182;138744;-62
2023/09/03 12:38:58;;;;;;;17.00;10.70;;;;;;;25.99;49.36;99548.19;221789;181;137800;-63
2023/09/03 12:44:06;;;;;;;3.60;2.90;;;;;;;26.28;48.00;99551.30;221855;181;149171;-66
2023/09/03 12:49:09;;;;;;;5.10;2.40;;;;;;;26.48;45.98;99558.23;221609;182;139371;-63
2023/09/03 12:54:15;;;;;;;5.50;2.60;;;;;;;26.23;46.69;99564.69;221838;182;138602;-61
2023/09/03 12:59:21;;;;;;;5.30;2.60;;;;;;;25.72;47.57;99563.63;221867;182;147828;-62
2023/09/03 13:04:25;;;;;;;25.00;21.00;;;;;;;25.80;46.94;99560.17;221771;182;139270;-59
2023/09/03 13:09:30;;;;;;;5.80;4.80;;;;;;;25.73;47.44;99557.61;221912;182;138403;-62
2023/09/03 13:14:35;;;;;;;5.40;3.30;;;;;;;25.83;46.95;99559.29;221876;182;149302;-62
2023/09/03 13:19:40;;;;;;;5.90;3.00;;;;;;;26.04;46.08;99553.72;221968;182;139811;-66
2023/09/03 13:24:45;;;;;;;7.90;3.30;;;;;;;26.41;45.68;99557.77;221982;182;140972;-65
2023/09/03 13:29:53;;;;;;;4.70;3.30;;;;;;;26.86;45.37;99559.05;221851;182;148568;-65
2023/09/03 13:34:58;;;;;;;8.60;3.30;;;;;;;27.01;44.88;99556.46;221749;182;141362;-60
2023/09/03 13:40:05;;;;;;;5.90;4.90;;;;;;;26.90;44.08;99554.98;221793;182;137283;-59
2023/09/03 13:45:12;;;;;;;5.90;3.00;;;;;;;26.89;43.66;99554.69;221906;182;147681;-60
2023/09/03 13:50:16;;;;;;;4.60;3.50;;;;;;;26.37;43.48;99556.38;221797;181;140011;-59
2023/09/03 13:55:24;;;;;;;2.80;2.30;;;;;;;25.85;44.19;99563.30;221805;182;137313;-60
2023/09/03 14:00:28;;;;;;;6.10;4.50;;;;;;;25.46;45.88;99571.13;221650;183;147716;-62
2023/09/03 14:05:33;;;;;;;;;;;;;;;25.50;47.42;99569.47;221775;182;139349;-59
2023/09/03 14:10:38;;;;;;;7.40;3.30;;;;;;;25.68;47.99;99567.33;221783;181;133032;-57
2023/09/03 14:15:42;;;;;;;5.20;2.90;;;;;;;25.56;48.77;99567.49;221746;182;147926;-59
2023/09/03 14:20:47;;;;;;;6.70;2.40;;;;;;;25.15;48.92;99572.77;221765;181;139033;-60
2023/09/03 14:25:53;;;;;;;2.80;2.10;;;;;;;24.68;49.12;99570.47;221814;182;137646;-59
2023/09/03 14:31:01;;;;;;;6.00;2.30;;;;;;;24.40;49.88;99566.53;221673;182;147644;-58
2023/09/03 14:36:05;;;;;;;4.10;2.00;;;;;;;24.20;50.30;99566.13;221650;182;138975;-58
2023/09/03 14:41:11;;;;;;;4.40;2.10;;;;;;;24.05;50.46;99566.76;221765;181;138218;-59
2023/09/03 14:46:15;;;;;;;3.20;2.30;;;;;;;23.91;50.70;99567.55;221759;181;147331;-61
2023/09/03 14:51:20;;;;;;;;;;;;;;;23.81;50.92;99576.61;221963;181;139858;-60
2023/09/03 14:56:26;;;;;;;4.30;2.30;;;;;;;23.74;51.44;99581.21;221868;182;133029;-61
2023/09/03 15:01:30;;;;;;;3.80;2.70;;;;;;;23.66;52.15;99588.96;221835;182;147599;-64
2023/09/03 15:06:36;;;;;;;35.80;28.10;;;;;;;23.60;52.00;99594.25;221713;182;139408;-61
2023/09/03 15:11:41;;;;;;;3.20;2.80;;;;;;;23.61;51.80;99595.23;221705;183;138613;-63
2023/09/03 15:16:46;;;;;;;3.80;2.90;;;;;;;23.61;52.54;99596.81;221703;183;148192;-63
2023/09/03 15:21:52;;;;;;;4.20;2.50;;;;;;;23.58;53.14;99596.27;221607;182;138912;-62
2023/09/03 15:26:56;;;;;;;10.00;3.20;;;;;;;23.56;54.38;99608.08;221744;182;137586;-61
2023/09/03 15:32:02;;;;;;;4.50;2.50;;;;;;;23.53;54.91;99605.27;221830;182;285281;-62
2023/09/03 15:37:06;;;;;;;5.80;2.40;;;;;;;23.44;55.40;99610.06;221749;182;141688;-60
2023/09/03 15:42:11;;;;;;;5.90;2.80;;;;;;;23.29;55.29;99611.16;221809;182;140465;-59
2023/09/03 15:47:14;;;;;;;3.20;2.20;;;;;;;23.14;56.39;99606.05;221781;182;149268;-59
2023/09/03 15:52:20;;;;;;;3.80;2.20;;;;;;;22.98;56.16;99606.30;221681;182;139366;-62
2023/09/03 15:57:24;;;;;;;5.50;2.40;;;;;;;22.84;57.06;99608.37;221711;182;137615;-62
2023/09/03 16:02:29;;;;;;;8.80;3.80;;;;;;;22.65;57.61;99616.58;221818;182;148060;-60
2023/09/03 16:07:34;;;;;;;;;;;;;;;22.59;58.83;99626.88;221814;182;139891;-61
2023/09/03 16:12:39;;;;;;;3.60;2.70;;;;;;;22.43;57.66;99629.81;221847;182;133022;-60
2023/09/03 16:17:45;;;;;;;483.50;415.00;;;;;;;22.27;58.09;99625.09;221724;182;147776;-64
2023/09/03 16:22:50;;;;;;;18.50;14.80;;;;;;;22.15;59.33;99629.63;221777;182;141459;-60
2023/09/03 16:27:54;;;;;;;5.50;3.90;;;;;;;22.16;59.04;99628.73;221731;182;137614;-59
2023/09/03 16:33:00;;;;;;;154.40;128.20;;;;;;;22.03;59.06;99630.05;221926;182;147753;-63
2023/09/03 16:38:10;;;;;;;45.30;34.20;;;;;;;21.94;59.28;99630.05;221778;182;140881;-60
2023/09/03 16:43:14;;;;;;;9.70;6.50;;;;;;;21.85;59.18;99634.73;221846;182;137417;-60
2023/09/03 16:48:20;;;;;;;11.40;8.40;;;;;;;21.81;58.77;99641.64;221877;182;148632;-62
2023/09/03 17:40:31;;;;;;;146.30;98.60;;;;;;;20.85;60.17;99704.33;220523;193;667890;-62
2023/09/03 17:45:42;;;;;;;31.20;22.20;;;;;;;20.61;58.98;99710.18;221684;183;137205;-61
2023/09/03 17:50:48;;;;;;;10.80;6.10;;;;;;;20.42;59.76;99717.70;221877;183;144065;-63
2023/09/03 17:55:53;;;;;;;4.70;3.30;;;;;;;20.31;60.43;99721.21;221635;182;138676;-62
2023/09/03 18:01:02;;;;;;;4.50;2.70;;;;;;;20.25;61.26;99723.91;221776;182;137429;-63
2023/09/03 18:06:10;;;;;;;8.10;4.50;;;;;;;20.19;61.46;99729.52;221613;183;143959;-62
2023/09/03 18:11:18;;;;;;;4.70;2.70;;;;;;;20.21;62.45;99742.88;221762;182;140949;-61
2023/09/03 18:16:22;;;;;;;4.20;2.90;;;;;;;20.26;62.54;99751.92;221677;183;138053;-63
2023/09/03 18:21:27;;;;;;;6.60;2.80;;;;;;;20.23;62.06;99757.59;221840;183;143839;-62
2023/09/03 18:26:32;;;;;;;3.50;2.60;;;;;;;20.18;62.74;99759.77;221700;182;139944;-62
2023/09/03 18:31:37;;;;;;;;;;;;;;;20.21;63.23;99758.73;221729;183;137151;-60
2023/09/03 18:36:44;;;;;;;5.00;2.90;;;;;;;20.28;63.31;99752.34;221734;183;145765;-62
2023/09/03 18:41:49;;;;;;;143.00;121.00;;;;;;;20.33;62.87;99757.45;221643;183;140456;-63
2023/09/03 18:46:59;;;;;;;38.60;33.20;;;;;;;20.23;62.34;99769.88;221834;182;138048;-64
2023/09/03 18:52:05;;;;;;;6.70;4.60;;;;;;;20.01;62.52;99779.59;221659;183;145535;-67
2023/09/03 18:57:09;;;;;;;;;;;;;;;19.76;62.51;99780.95;221668;183;138925;-65
2023/09/03 19:02:15;;;;;;;7.40;3.30;;;;;;;19.54;63.58;99779.11;221645;183;131208;-65
2023/09/03 19:07:21;;;;;;;3.60;3.20;;;;;;;19.37;63.99;99781.59;221584;182;145925;-66
2023/09/03 19:12:26;;;;;;;4.80;3.30;;;;;;;19.25;64.15;99785.39;221565;183;139346;-66
2023/09/03 19:17:31;;;;;;;4.90;3.00;;;;;;;19.13;64.49;99790.84;221632;184;136554;-67
2023/09/03 19:22:36;;;;;;;;;;;;;;;19.03;65.04;99798.02;221607;183;145354;-69
2023/09/03 19:27:42;;;;;;;7.20;3.80;;;;;;;18.97;65.46;99802.73;221703;184;139309;-68
2023/09/03 19:32:46;;;;;;;7.10;3.40;;;;;;;18.94;65.69;99805.48;221696;182;137286;-68
2023/09/03 19:37:52;;;;;;;5.80;3.40;;;;;;;18.93;65.99;99807.16;221715;182;148035;-67
2023/09/03 19:42:56;;;;;;;8.10;3.60;;;;;;;18.91;65.87;99801.06;221636;183;139038;-66
2023/09/03 19:48:18;;;;;;;9.40;3.90;;;;;;;18.87;66.22;99797.27;221611;183;137880;-62
2023/09/03 19:53:25;;;;;;;6.00;3.20;;;;;;;18.80;66.08;99799.45;221659;183;146450;-64
2023/09/03 19:58:31;;;;;;;;;;;;;;;18.71;66.11;99795.50;221630;179;139045;-66
2023/09/03 20:03:39;;;;;;;5.80;3.30;;;;;;;18.64;66.64;99798.55;221763;183;131141;-66
2023/09/03 20:08:45;;;;;;;4.80;3.30;;;;;;;18.55;67.02;99809.79;221678;183;145860;-66
2023/09/03 20:13:52;;;;;;;5.80;3.70;;;;;;;18.45;67.04;99815.80;221617;183;138915;-67
2023/09/03 20:18:57;;;;;;;6.50;3.70;;;;;;;18.37;67.43;99819.39;221706;184;137013;-66
2023/09/03 20:24:05;;;;;;;5.30;3.70;;;;;;;18.30;67.88;99817.91;222031;181;145980;-64
2023/09/03 20:29:08;;;;;;;7.40;3.70;;;;;;;18.29;68.19;99818.02;221878;181;141457;-69
2023/09/03 20:34:14;;;;;;;5.40;3.40;;;;;;;18.28;68.26;99823.11;221819;181;137145;-67
2023/09/03 20:39:18;;;;;;;6.50;3.90;;;;;;;18.28;68.00;99825.15;221841;181;145994;-69
2023/09/03 20:44:23;;;;;;;8.90;3.70;;;;;;;18.27;68.09;99812.62;221909;181;138661;-66
2023/09/03 20:49:28;;;;;;;5.40;3.80;;;;;;;18.21;68.40;99804.16;222050;181;138738;-66
2023/09/03 20:54:34;;;;;;;5.60;3.50;;;;;;;18.11;68.30;99793.80;221912;181;145814;-68
2023/09/03 20:59:39;;;;;;;8.20;3.50;;;;;;;17.99;68.68;99786.68;221783;181;138892;-65
2023/09/03 21:04:49;;;;;;;5.60;3.50;;;;;;;17.91;69.07;99789.87;221772;181;137030;-66
2023/09/03 21:09:54;;;;;;;4.50;3.50;;;;;;;17.87;69.47;99792.86;221965;181;145369;-66
2023/09/03 21:15:00;;;;;;;4.20;3.20;;;;;;;17.81;69.61;99796.77;221935;182;139995;-66
2023/09/03 21:57:23;;;;;;;3.80;2.50;;;;;;;17.91;68.11;99815.75;220512;193;667195;-70
2023/09/03 22:02:28;;;;;;;6.10;2.70;;;;;;;17.87;68.12;99818.40;221534;187;137256;-67
2023/09/03 22:07:35;;;;;;;3.30;2.80;;;;;;;17.83;68.09;99819.98;221703;184;145684;-68
2023/09/03 22:12:42;;;;;;;4.70;2.70;;;;;;;17.77;67.96;99822.59;221677;184;138702;-66
2023/09/03 22:17:46;;;;;;;4.30;2.70;;;;;;;17.73;68.00;99836.98;221740;184;137714;-70
2023/09/03 22:22:51;;;;;;;5.40;2.70;;;;;;;17.74;67.75;99835.88;221841;183;144214;-67
2023/09/03 22:27:55;;;;;;;4.90;2.90;;;;;;;17.80;67.72;99848.05;221667;183;139015;-67
2023/09/03 22:33:00;;;;;;;6.80;3.00;;;;;;;17.80;67.74;99846.23;221652;184;137187;-68
2023/09/03 22:38:04;;;;;;;3.70;2.80;;;;;;;17.81;67.29;99860.13;221657;183;144118;-68
2023/09/03 22:43:09;;;;;;;5.70;3.20;;;;;;;17.85;66.77;99857.33;221553;183;139014;-65
2023/09/03 22:48:15;;;;;;;5.70;2.80;;;;;;;17.88;66.58;99859.02;221597;183;138851;-65
2023/09/03 22:53:19;;;;;;;4.80;3.00;;;;;;;17.90;66.23;99854.23;221647;183;146991;-65
2023/09/03 22:58:24;;;;;;;4.60;2.60;;;;;;;17.91;66.23;99849.67;221669;183;140410;-64
2023/09/03 23:03:28;;;;;;;5.00;2.90;;;;;;;17.94;65.82;99860.86;221705;184;136673;-65
2023/09/03 23:08:35;;;;;;;4.30;2.60;;;;;;;17.96;66.01;99855.88;221660;184;147839;-63
2023/09/03 23:13:42;;;;;;;5.20;2.40;;;;;;;17.96;66.11;99850.48;221667;184;138837;-65
2023/09/03 23:18:47;;;;;;;3.90;2.70;;;;;;;18.01;66.02;99854.60;221633;184;136924;-70
2023/09/03 23:23:51;;;;;;;4.40;3.10;;;;;;;18.06;65.78;99851.52;221560;184;146239;-68
2023/09/03 23:28:58;;;;;;;3.40;2.30;;;;;;;18.10;65.91;99848.44;221728;183;139848;-66
2023/09/03 23:34:04;;;;;;;4.60;2.90;;;;;;;18.16;65.47;99840.07;221802;183;137371;-65
2023/09/03 23:39:08;;;;;;;6.00;2.60;;;;;;;18.25;65.53;99838.70;221655;184;147484;-69
2023/09/03 23:44:13;;;;;;;4.00;2.90;;;;;;;18.30;65.16;99833.96;221582;184;139787;-68
2023/09/03 23:49:17;;;;;;;7.20;2.60;;;;;;;18.33;64.67;99826.45;221704;184;138293;-64
2023/09/03 23:54:22;;;;;;;4.60;2.40;;;;;;;18.32;64.36;99820.83;221570;183;146190;-65
2023/09/03 23:59:29;;;;;;;3.80;2.40;;;;;;;18.32;64.52;99827.35;221471;183;139698;-64
